sensor_id;sensor_type;location;lat;lon;timestamp;pressure;altitude;pressure_sealevel;temperature;humidity
39267;BME280;24967;51.154;13.812;2022-11-03T00:01:05;100186.56;;;7.22;70.68
39267;BME280;24967;51.154;13.812;2022-11-03T00:03:32;100172.63;;;7.20;71.10
39267;BME280;24967;51.154;13.812;2022-11-03T00:06:00;100181.28;;;7.22;71.35
39267;BME280;24967;51.154;13.812;2022-11-03T00:08:37;100169.50;;;7.15;71.79
39267;BME280;24967;51.154;13.812;2022-11-03T00:11:06;100164.38;;;7.00;72.31
39267;BME280;24967;51.154;13.812;2022-11-03T00:13:34;100157.19;;;7.02;71.71
39267;BME280;24967;51.154;13.812;2022-11-03T00:16:01;100148.66;;;6.86;72.01
39267;BME280;24967;51.154;13.812;2022-11-03T00:18:27;100150.69;;;6.82;72.41
39267;BME280;24967;51.154;13.812;2022-11-03T00:21:00;100145.19;;;6.85;72.86
39267;BME280;24967;51.154;13.812;2022-11-03T00:23:28;100149.69;;;6.96;72.80
39267;BME280;24967;51.154;13.812;2022-11-03T00:26:04;100143.22;;;7.00;71.84
39267;BME280;24967;51.154;13.812;2022-11-03T00:28:31;100149.63;;;7.09;72.11
39267;BME280;24967;51.154;13.812;2022-11-03T00:30:58;100147.59;;;7.13;71.98
39267;BME280;24967;51.154;13.812;2022-11-03T00:33:25;100148.44;;;7.13;71.54
39267;BME280;24967;51.154;13.812;2022-11-03T00:35:55;100138.69;;;7.14;71.47
39267;BME280;24967;51.154;13.812;2022-11-03T00:38:24;100139.44;;;7.16;71.26
39267;BME280;24967;51.154;13.812;2022-11-03T00:40:53;100137.75;;;7.15;71.03
39267;BME280;24967;51.154;13.812;2022-11-03T00:43:20;100127.50;;;7.10;70.92
39267;BME280;24967;51.154;13.812;2022-11-03T00:45:47;100146.03;;;7.10;70.78
39267;BME280;24967;51.154;13.812;2022-11-03T00:48:14;100129.22;;;7.11;70.12
39267;BME280;24967;51.154;13.812;2022-11-03T00:51:01;100132.19;;;7.06;70.36
39267;BME280;24967;51.154;13.812;2022-11-03T00:53:30;100130.22;;;6.97;71.13
39267;BME280;24967;51.154;13.812;2022-11-03T00:55:57;100130.44;;;6.94;70.73
39267;BME280;24967;51.154;13.812;2022-11-03T00:58:24;100118.81;;;6.73;71.63
39267;BME280;24967;51.154;13.812;2022-11-03T01:00:57;100119.34;;;6.65;72.92
39267;BME280;24967;51.154;13.812;2022-11-03T01:03:25;100122.00;;;6.65;73.07
39267;BME280;24967;51.154;13.812;2022-11-03T01:05:51;100120.63;;;6.72;73.10
39267;BME280;24967;51.154;13.812;2022-11-03T01:08:36;100112.03;;;6.69;73.12
39267;BME280;24967;51.154;13.812;2022-11-03T01:11:05;100106.88;;;6.67;73.62
39267;BME280;24967;51.154;13.812;2022-11-03T01:13:49;100104.06;;;6.57;73.92
39267;BME280;24967;51.154;13.812;2022-11-03T01:16:15;100108.69;;;6.67;73.79
39267;BME280;24967;51.154;13.812;2022-11-03T01:18:42;100101.78;;;6.77;73.28
39267;BME280;24967;51.154;13.812;2022-11-03T01:21:08;100102.44;;;6.68;73.83
39267;BME280;24967;51.154;13.812;2022-11-03T01:23:37;100103.81;;;6.73;73.58
39267;BME280;24967;51.154;13.812;2022-11-03T01:26:04;100104.53;;;6.75;73.69
39267;BME280;24967;51.154;13.812;2022-11-03T01:28:32;100103.47;;;6.78;73.40
39267;BME280;24967;51.154;13.812;2022-11-03T01:31:02;100110.97;;;6.84;73.15
39267;BME280;24967;51.154;13.812;2022-11-03T01:33:29;100107.06;;;6.77;72.91
39267;BME280;24967;51.154;13.812;2022-11-03T01:35:55;100106.00;;;6.79;72.73
39267;BME280;24967;51.154;13.812;2022-11-03T01:38:22;100106.38;;;6.86;72.69
39267;BME280;24967;51.154;13.812;2022-11-03T01:40:50;100107.00;;;6.89;72.35
39267;BME280;24967;51.154;13.812;2022-11-03T01:43:18;100115.66;;;6.92;72.24
39267;BME280;24967;51.154;13.812;2022-11-03T01:45:46;100107.84;;;6.90;71.72
39267;BME280;24967;51.154;13.812;2022-11-03T01:48:16;100107.44;;;6.83;71.60
39267;BME280;24967;51.154;13.812;2022-11-03T01:50:45;100115.59;;;6.80;71.98
39267;BME280;24967;51.154;13.812;2022-11-03T01:53:14;100106.22;;;6.76;71.18
39267;BME280;24967;51.154;13.812;2022-11-03T01:55:42;100104.03;;;6.70;71.65
39267;BME280;24967;51.154;13.812;2022-11-03T01:58:13;100097.97;;;6.57;72.82
39267;BME280;24967;51.154;13.812;2022-11-03T02:00:41;100089.75;;;6.49;73.73
39267;BME280;24967;51.154;13.812;2022-11-03T02:03:09;100086.47;;;6.45;73.72
39267;BME280;24967;51.154;13.812;2022-11-03T02:05:36;100093.78;;;6.41;75.54
39267;BME280;24967;51.154;13.812;2022-11-03T02:08:06;100089.66;;;6.37;76.01
39267;BME280;24967;51.154;13.812;2022-11-03T02:10:35;100081.19;;;6.45;76.16
39267;BME280;24967;51.154;13.812;2022-11-03T02:13:07;100083.88;;;6.56;75.75
39267;BME280;24967;51.154;13.812;2022-11-03T02:15:40;100076.16;;;6.66;75.29
39267;BME280;24967;51.154;13.812;2022-11-03T02:18:08;100072.84;;;6.75;74.91
39267;BME280;24967;51.154;13.812;2022-11-03T02:20:37;100070.66;;;6.80;74.66
39267;BME280;24967;51.154;13.812;2022-11-03T02:23:19;100074.06;;;6.82;74.58
39267;BME280;24967;51.154;13.812;2022-11-03T02:25:50;100063.72;;;6.79;74.46
39267;BME280;24967;51.154;13.812;2022-11-03T02:28:19;100069.97;;;6.78;73.80
39267;BME280;24967;51.154;13.812;2022-11-03T02:30:55;100066.34;;;6.79;74.26
39267;BME280;24967;51.154;13.812;2022-11-03T02:33:29;100079.19;;;6.73;73.52
39267;BME280;24967;51.154;13.812;2022-11-03T02:36:01;100076.75;;;6.70;73.71
39267;BME280;24967;51.154;13.812;2022-11-03T02:38:31;100067.25;;;6.67;73.52
39267;BME280;24967;51.154;13.812;2022-11-03T02:41:05;100065.34;;;6.69;73.74
39267;BME280;24967;51.154;13.812;2022-11-03T02:43:33;100057.75;;;6.64;73.50
39267;BME280;24967;51.154;13.812;2022-11-03T02:46:00;100058.09;;;6.60;73.33
39267;BME280;24967;51.154;13.812;2022-11-03T02:48:30;100052.19;;;6.56;73.24
39267;BME280;24967;51.154;13.812;2022-11-03T02:50:57;100050.44;;;6.44;73.60
39267;BME280;24967;51.154;13.812;2022-11-03T02:53:26;100043.47;;;6.43;73.78
39267;BME280;24967;51.154;13.812;2022-11-03T02:56:02;100030.28;;;6.43;73.65
39267;BME280;24967;51.154;13.812;2022-11-03T02:58:34;100035.56;;;6.43;74.25
39267;BME280;24967;51.154;13.812;2022-11-03T03:01:08;100038.94;;;6.45;74.24
39267;BME280;24967;51.154;13.812;2022-11-03T03:03:41;100032.25;;;6.52;73.93
39267;BME280;24967;51.154;13.812;2022-11-03T03:06:15;100026.56;;;6.46;73.60
39267;BME280;24967;51.154;13.812;2022-11-03T03:08:48;100013.81;;;6.39;74.03
39267;BME280;24967;51.154;13.812;2022-11-03T03:11:18;100017.53;;;6.37;73.93
39267;BME280;24967;51.154;13.812;2022-11-03T03:14:02;100008.31;;;6.42;74.02
39267;BME280;24967;51.154;13.812;2022-11-03T03:16:31;100008.09;;;6.46;73.60
39267;BME280;24967;51.154;13.812;2022-11-03T03:19:05;100004.59;;;6.45;73.69
39267;BME280;24967;51.154;13.812;2022-11-03T03:21:38;100004.69;;;6.43;73.34
39267;BME280;24967;51.154;13.812;2022-11-03T03:24:12;99995.09;;;6.42;73.46
39267;BME280;24967;51.154;13.812;2022-11-03T03:26:44;99995.34;;;6.39;74.16
39267;BME280;24967;51.154;13.812;2022-11-03T03:29:16;99993.19;;;6.45;73.99
39267;BME280;24967;51.154;13.812;2022-11-03T03:31:47;99982.22;;;6.38;73.43
39267;BME280;24967;51.154;13.812;2022-11-03T03:34:16;99991.09;;;6.37;73.78
39267;BME280;24967;51.154;13.812;2022-11-03T03:36:46;99987.50;;;6.38;73.80
39267;BME280;24967;51.154;13.812;2022-11-03T03:39:15;99993.66;;;6.38;73.49
39267;BME280;24967;51.154;13.812;2022-11-03T03:41:47;99990.16;;;6.38;73.29
39267;BME280;24967;51.154;13.812;2022-11-03T03:44:14;99986.56;;;6.39;73.36
39267;BME280;24967;51.154;13.812;2022-11-03T03:46:46;99987.63;;;6.36;73.24
39267;BME280;24967;51.154;13.812;2022-11-03T03:49:14;99993.13;;;6.33;73.39
39267;BME280;24967;51.154;13.812;2022-11-03T03:51:41;99983.63;;;6.31;73.17
39267;BME280;24967;51.154;13.812;2022-11-03T03:54:09;99976.78;;;6.28;73.27
39267;BME280;24967;51.154;13.812;2022-11-03T03:56:38;99973.31;;;6.28;73.34
39267;BME280;24967;51.154;13.812;2022-11-03T03:59:08;99968.84;;;6.28;73.54
39267;BME280;24967;51.154;13.812;2022-11-03T04:01:35;99963.28;;;6.20;73.23
39267;BME280;24967;51.154;13.812;2022-11-03T04:04:01;99963.06;;;6.23;73.42
39267;BME280;24967;51.154;13.812;2022-11-03T04:06:28;99951.63;;;6.11;73.64
39267;BME280;24967;51.154;13.812;2022-11-03T04:08:55;99954.28;;;6.11;73.41
39267;BME280;24967;51.154;13.812;2022-11-03T04:11:21;99940.03;;;6.01;74.09
39267;BME280;24967;51.154;13.812;2022-11-03T04:14:07;99939.44;;;5.97;74.45
39267;BME280;24967;51.154;13.812;2022-11-03T04:16:52;99933.41;;;5.95;74.23
39267;BME280;24967;51.154;13.812;2022-11-03T04:19:35;99927.19;;;5.96;74.50
39267;BME280;24967;51.154;13.812;2022-11-03T04:22:19;99923.59;;;5.97;74.71
39267;BME280;24967;51.154;13.812;2022-11-03T04:24:48;99911.22;;;5.98;74.85
39267;BME280;24967;51.154;13.812;2022-11-03T04:27:28;99915.34;;;6.02;75.25
39267;BME280;24967;51.154;13.812;2022-11-03T04:29:59;99909.84;;;6.05;75.15
39267;BME280;24967;51.154;13.812;2022-11-03T04:32:27;99916.56;;;6.09;75.18
39267;BME280;24967;51.154;13.812;2022-11-03T04:34:54;99910.84;;;6.15;74.44
39267;BME280;24967;51.154;13.812;2022-11-03T04:37:21;99906.41;;;6.16;74.78
39267;BME280;24967;51.154;13.812;2022-11-03T04:39:47;99899.44;;;6.15;74.36
39267;BME280;24967;51.154;13.812;2022-11-03T04:42:16;99901.88;;;6.18;74.44
39267;BME280;24967;51.154;13.812;2022-11-03T04:44:44;99897.28;;;6.20;74.30
39267;BME280;24967;51.154;13.812;2022-11-03T04:47:15;99901.50;;;6.23;74.54
39267;BME280;24967;51.154;13.812;2022-11-03T04:49:42;99893.81;;;6.19;74.31
39267;BME280;24967;51.154;13.812;2022-11-03T04:52:13;99886.19;;;6.04;74.45
39267;BME280;24967;51.154;13.812;2022-11-03T04:54:40;99879.16;;;5.91;76.12
39267;BME280;24967;51.154;13.812;2022-11-03T04:57:10;99874.41;;;5.84;78.39
39267;BME280;24967;51.154;13.812;2022-11-03T04:59:37;99886.31;;;5.89;78.96
39267;BME280;24967;51.154;13.812;2022-11-03T05:02:09;99884.97;;;5.96;78.89
39267;BME280;24967;51.154;13.812;2022-11-03T05:04:38;99879.25;;;6.14;78.16
39267;BME280;24967;51.154;13.812;2022-11-03T05:07:20;99880.84;;;6.16;77.91
39267;BME280;24967;51.154;13.812;2022-11-03T05:09:48;99886.72;;;6.20;77.63
39267;BME280;24967;51.154;13.812;2022-11-03T05:12:15;99883.25;;;6.19;76.37
39267;BME280;24967;51.154;13.812;2022-11-03T05:14:43;99873.44;;;6.22;76.46
39267;BME280;24967;51.154;13.812;2022-11-03T05:17:20;99878.34;;;6.26;76.11
39267;BME280;24967;51.154;13.812;2022-11-03T05:19:49;99868.38;;;6.18;75.88
39267;BME280;24967;51.154;13.812;2022-11-03T05:22:19;99862.59;;;6.13;75.07
39267;BME280;24967;51.154;13.812;2022-11-03T05:24:46;99867.66;;;6.16;75.15
39267;BME280;24967;51.154;13.812;2022-11-03T05:27:17;99871.84;;;6.19;74.92
39267;BME280;24967;51.154;13.812;2022-11-03T05:29:45;99872.69;;;6.19;74.61
39267;BME280;24967;51.154;13.812;2022-11-03T05:32:15;99873.44;;;6.22;74.31
39267;BME280;24967;51.154;13.812;2022-11-03T05:34:46;99869.13;;;6.21;74.57
39267;BME280;24967;51.154;13.812;2022-11-03T05:37:23;99868.16;;;6.22;74.17
39267;BME280;24967;51.154;13.812;2022-11-03T05:39:52;99864.69;;;6.21;74.27
39267;BME280;24967;51.154;13.812;2022-11-03T05:42:27;99862.63;;;6.25;73.80
39267;BME280;24967;51.154;13.812;2022-11-03T05:44:55;99870.88;;;6.20;73.87
39267;BME280;24967;51.154;13.812;2022-11-03T05:47:25;99866.81;;;6.16;74.00
39267;BME280;24967;51.154;13.812;2022-11-03T05:49:56;99859.13;;;6.13;73.69
39267;BME280;24967;51.154;13.812;2022-11-03T05:52:27;99855.03;;;6.09;73.75
39267;BME280;24967;51.154;13.812;2022-11-03T05:54:55;99852.63;;;6.06;73.95
39267;BME280;24967;51.154;13.812;2022-11-03T05:57:24;99855.25;;;6.06;73.83
39267;BME280;24967;51.154;13.812;2022-11-03T05:59:53;99856.31;;;6.03;73.92
39267;BME280;24967;51.154;13.812;2022-11-03T06:02:31;99863.78;;;6.09;73.85
39267;BME280;24967;51.154;13.812;2022-11-03T06:05:02;99856.59;;;6.11;73.98
39267;BME280;24967;51.154;13.812;2022-11-03T06:07:30;99861.03;;;6.11;74.20
39267;BME280;24967;51.154;13.812;2022-11-03T06:09:57;99855.97;;;6.08;74.59
39267;BME280;24967;51.154;13.812;2022-11-03T06:12:24;99860.19;;;6.10;74.17
39267;BME280;24967;51.154;13.812;2022-11-03T06:14:51;99856.84;;;6.08;74.44
39267;BME280;24967;51.154;13.812;2022-11-03T06:17:21;99859.69;;;6.05;74.53
39267;BME280;24967;51.154;13.812;2022-11-03T06:19:49;99854.75;;;6.01;75.37
39267;BME280;24967;51.154;13.812;2022-11-03T06:22:19;99869.06;;;6.09;74.71
39267;BME280;24967;51.154;13.812;2022-11-03T06:24:50;99861.88;;;6.11;74.89
39267;BME280;24967;51.154;13.812;2022-11-03T06:29:55;99855.94;;;5.96;76.80
39267;BME280;24967;51.154;13.812;2022-11-03T06:32:22;99851.31;;;5.87;80.93
39267;BME280;24967;51.154;13.812;2022-11-03T06:34:51;99858.03;;;5.91;84.47
39267;BME280;24967;51.154;13.812;2022-11-03T06:37:20;99859.69;;;6.05;86.49
39267;BME280;24967;51.154;13.812;2022-11-03T06:39:52;99850.41;;;6.24;86.43
39267;BME280;24967;51.154;13.812;2022-11-03T06:42:23;99852.19;;;6.23;87.98
39267;BME280;24967;51.154;13.812;2022-11-03T06:44:49;99847.16;;;6.31;89.15
39267;BME280;24967;51.154;13.812;2022-11-03T06:47:21;99842.91;;;6.53;87.65
39267;BME280;24967;51.154;13.812;2022-11-03T06:49:49;99843.50;;;6.56;87.39
39267;BME280;24967;51.154;13.812;2022-11-03T06:52:34;99841.50;;;6.60;88.09
39267;BME280;24967;51.154;13.812;2022-11-03T06:55:25;99839.22;;;6.78;88.44
39267;BME280;24967;51.154;13.812;2022-11-03T06:57:54;99829.03;;;6.84;89.35
39267;BME280;24967;51.154;13.812;2022-11-03T07:00:24;99825.88;;;7.02;89.00
39267;BME280;24967;51.154;13.812;2022-11-03T07:02:58;99819.03;;;7.10;88.50
39267;BME280;24967;51.154;13.812;2022-11-03T07:05:28;99811.09;;;7.22;88.16
39267;BME280;24967;51.154;13.812;2022-11-03T07:07:56;99813.47;;;7.36;88.27
39267;BME280;24967;51.154;13.812;2022-11-03T07:10:26;99816.06;;;7.47;88.00
39267;BME280;24967;51.154;13.812;2022-11-03T07:12:54;99815.34;;;7.56;88.28
39267;BME280;24967;51.154;13.812;2022-11-03T07:15:27;99805.22;;;7.62;87.48
39267;BME280;24967;51.154;13.812;2022-11-03T07:17:57;99805.25;;;7.83;86.71
39267;BME280;24967;51.154;13.812;2022-11-03T07:20:24;99805.69;;;7.99;86.32
39267;BME280;24967;51.154;13.812;2022-11-03T07:22:51;99802.72;;;8.13;86.22
39267;BME280;24967;51.154;13.812;2022-11-03T07:25:20;99791.09;;;8.25;85.57
39267;BME280;24967;51.154;13.812;2022-11-03T07:27:50;99800.22;;;8.33;84.78
39267;BME280;24967;51.154;13.812;2022-11-03T07:30:20;99798.94;;;8.48;84.97
39267;BME280;24967;51.154;13.812;2022-11-03T07:32:50;99789.91;;;8.51;84.21
39267;BME280;24967;51.154;13.812;2022-11-03T07:35:27;99794.06;;;8.53;83.88
39267;BME280;24967;51.154;13.812;2022-11-03T07:37:56;99789.53;;;8.65;83.65
39267;BME280;24967;51.154;13.812;2022-11-03T07:40:27;99787.38;;;8.80;82.71
39267;BME280;24967;51.154;13.812;2022-11-03T07:42:57;99791.84;;;8.79;82.97
39267;BME280;24967;51.154;13.812;2022-11-03T07:45:32;99788.16;;;9.01;82.35
39267;BME280;24967;51.154;13.812;2022-11-03T07:48:04;99791.50;;;9.03;82.05
39267;BME280;24967;51.154;13.812;2022-11-03T07:50:32;99784.94;;;9.07;81.44
39267;BME280;24967;51.154;13.812;2022-11-03T07:52:59;99777.16;;;9.06;81.29
39267;BME280;24967;51.154;13.812;2022-11-03T07:55:25;99778.16;;;9.24;80.98
39267;BME280;24967;51.154;13.812;2022-11-03T07:57:52;99766.47;;;9.36;80.88
39267;BME280;24967;51.154;13.812;2022-11-03T08:00:20;99770.66;;;9.29;80.70
39267;BME280;24967;51.154;13.812;2022-11-03T08:02:48;99775.97;;;9.49;79.79
39267;BME280;24967;51.154;13.812;2022-11-03T08:05:16;99765.91;;;9.52;79.15
39267;BME280;24967;51.154;13.812;2022-11-03T08:07:42;99762.44;;;9.61;79.49
39267;BME280;24967;51.154;13.812;2022-11-03T08:10:09;99747.63;;;9.78;78.95
39267;BME280;24967;51.154;13.812;2022-11-03T08:12:35;99743.31;;;9.77;79.10
39267;BME280;24967;51.154;13.812;2022-11-03T08:15:02;99737.72;;;9.90;79.35
39267;BME280;24967;51.154;13.812;2022-11-03T08:17:30;99738.41;;;10.02;78.00
39267;BME280;24967;51.154;13.812;2022-11-03T08:19:57;99732.78;;;10.15;77.98
39267;BME280;24967;51.154;13.812;2022-11-03T08:22:23;99730.25;;;10.32;76.88
39267;BME280;24967;51.154;13.812;2022-11-03T08:24:50;99729.72;;;10.29;76.34
39267;BME280;24967;51.154;13.812;2022-11-03T08:27:17;99723.41;;;10.30;76.39
39267;BME280;24967;51.154;13.812;2022-11-03T08:29:44;99721.13;;;10.25;76.28
39267;BME280;24967;51.154;13.812;2022-11-03T08:32:10;99714.44;;;10.31;76.03
39267;BME280;24967;51.154;13.812;2022-11-03T08:34:38;99721.13;;;10.45;75.30
39267;BME280;24967;51.154;13.812;2022-11-03T08:37:05;99711.19;;;10.47;75.22
39267;BME280;24967;51.154;13.812;2022-11-03T08:39:31;99707.06;;;10.62;74.29
39267;BME280;24967;51.154;13.812;2022-11-03T08:42:00;99704.19;;;10.46;74.23
39267;BME280;24967;51.154;13.812;2022-11-03T08:44:26;99704.41;;;10.62;74.40
39267;BME280;24967;51.154;13.812;2022-11-03T08:46:53;99701.34;;;10.85;74.44
39267;BME280;24967;51.154;13.812;2022-11-03T08:49:19;99698.88;;;11.01;74.09
39267;BME280;24967;51.154;13.812;2022-11-03T08:51:47;99690.38;;;11.15;73.64
39267;BME280;24967;51.154;13.812;2022-11-03T08:54:14;99690.09;;;11.36;73.43
39267;BME280;24967;51.154;13.812;2022-11-03T08:56:41;99691.53;;;11.49;72.64
39267;BME280;24967;51.154;13.812;2022-11-03T08:59:08;99688.03;;;11.66;71.69
39267;BME280;24967;51.154;13.812;2022-11-03T09:01:35;99687.41;;;11.90;71.33
39267;BME280;24967;51.154;13.812;2022-11-03T09:04:01;99685.28;;;12.20;71.58
39267;BME280;24967;51.154;13.812;2022-11-03T09:06:28;99679.31;;;12.26;70.14
39267;BME280;24967;51.154;13.812;2022-11-03T09:08:56;99681.25;;;12.15;69.23
39267;BME280;24967;51.154;13.812;2022-11-03T09:11:23;99678.06;;;12.46;69.77
39267;BME280;24967;51.154;13.812;2022-11-03T09:13:49;99668.47;;;12.61;69.06
39267;BME280;24967;51.154;13.812;2022-11-03T09:16:16;99669.88;;;12.74;67.95
39267;BME280;24967;51.154;13.812;2022-11-03T09:18:42;99675.56;;;12.79;67.91
39267;BME280;24967;51.154;13.812;2022-11-03T09:21:09;99669.16;;;13.14;67.81
39267;BME280;24967;51.154;13.812;2022-11-03T09:23:36;99664.00;;;13.21;66.38
39267;BME280;24967;51.154;13.812;2022-11-03T09:26:04;99664.22;;;13.36;65.44
39267;BME280;24967;51.154;13.812;2022-11-03T09:28:31;99660.72;;;13.60;66.59
39267;BME280;24967;51.154;13.812;2022-11-03T09:30:58;99657.19;;;13.67;64.65
39267;BME280;24967;51.154;13.812;2022-11-03T09:33:24;99654.19;;;13.79;64.11
39267;BME280;24967;51.154;13.812;2022-11-03T09:35:51;99642.31;;;13.97;64.08
39267;BME280;24967;51.154;13.812;2022-11-03T09:38:17;99650.31;;;14.06;62.99
39267;BME280;24967;51.154;13.812;2022-11-03T09:40:44;99642.31;;;13.97;61.93
39267;BME280;24967;51.154;13.812;2022-11-03T09:43:12;99642.56;;;14.27;63.08
39267;BME280;24967;51.154;13.812;2022-11-03T09:45:39;99645.25;;;14.27;62.17
39267;BME280;24967;51.154;13.812;2022-11-03T09:48:08;99634.75;;;14.17;61.90
39267;BME280;24967;51.154;13.812;2022-11-03T09:50:35;99639.06;;;14.35;62.23
39267;BME280;24967;51.154;13.812;2022-11-03T09:53:02;99625.13;;;14.39;60.40
39267;BME280;24967;51.154;13.812;2022-11-03T09:55:29;99624.78;;;14.42;60.27
39267;BME280;24967;51.154;13.812;2022-11-03T09:57:58;99623.00;;;14.35;60.07
39267;BME280;24967;51.154;13.812;2022-11-03T10:00:27;99611.56;;;14.57;60.11
39267;BME280;24967;51.154;13.812;2022-11-03T10:02:54;99613.25;;;14.50;61.30
39267;BME280;24967;51.154;13.812;2022-11-03T10:05:22;99602.41;;;14.83;61.66
39267;BME280;24967;51.154;13.812;2022-11-03T10:07:50;99600.81;;;14.97;60.51
39267;BME280;24967;51.154;13.812;2022-11-03T10:10:19;99604.38;;;15.12;59.42
39267;BME280;24967;51.154;13.812;2022-11-03T10:12:47;99600.75;;;15.05;57.54
39267;BME280;24967;51.154;13.812;2022-11-03T10:15:15;99594.13;;;15.16;57.80
39267;BME280;24967;51.154;13.812;2022-11-03T10:17:44;99578.63;;;15.11;58.34
39267;BME280;24967;51.154;13.812;2022-11-03T10:20:13;99575.34;;;15.24;57.02
39267;BME280;24967;51.154;13.812;2022-11-03T10:22:41;99561.13;;;15.23;57.65
39267;BME280;24967;51.154;13.812;2022-11-03T10:25:28;99559.69;;;15.35;57.39
39267;BME280;24967;51.154;13.812;2022-11-03T10:28:13;99558.28;;;15.40;56.64
39267;BME280;24967;51.154;13.812;2022-11-03T10:30:51;99553.44;;;15.20;56.23
39267;BME280;24967;51.154;13.812;2022-11-03T10:33:26;99546.22;;;15.44;57.07
39267;BME280;24967;51.154;13.812;2022-11-03T10:35:56;99544.34;;;15.29;55.38
39267;BME280;24967;51.154;13.812;2022-11-03T10:38:29;99535.63;;;15.27;55.76
39267;BME280;24967;51.154;13.812;2022-11-03T10:41:08;99528.88;;;15.17;56.49
39267;BME280;24967;51.154;13.812;2022-11-03T10:43:35;99518.56;;;15.28;56.94
39267;BME280;24967;51.154;13.812;2022-11-03T10:46:13;99515.00;;;15.51;56.44
39267;BME280;24967;51.154;13.812;2022-11-03T10:48:42;99519.53;;;15.65;55.71
39267;BME280;24967;51.154;13.812;2022-11-03T10:51:11;99500.69;;;15.44;55.74
39267;BME280;24967;51.154;13.812;2022-11-03T10:53:38;99505.63;;;15.17;55.51
39267;BME280;24967;51.154;13.812;2022-11-03T10:56:06;99503.19;;;15.07;56.11
39267;BME280;24967;51.154;13.812;2022-11-03T10:58:33;99505.81;;;14.93;56.98
39267;BME280;24967;51.154;13.812;2022-11-03T11:01:02;99496.88;;;15.00;55.49
39267;BME280;24967;51.154;13.812;2022-11-03T11:03:29;99492.53;;;14.99;56.59
39267;BME280;24967;51.154;13.812;2022-11-03T11:05:57;99487.34;;;15.21;57.04
39267;BME280;24967;51.154;13.812;2022-11-03T11:08:23;99479.25;;;15.58;56.14
39267;BME280;24967;51.154;13.812;2022-11-03T11:10:50;99474.81;;;15.51;55.67
39267;BME280;24967;51.154;13.812;2022-11-03T11:13:27;99470.59;;;15.71;56.01
39267;BME280;24967;51.154;13.812;2022-11-03T11:15:56;99462.00;;;15.76;55.71
39267;BME280;24967;51.154;13.812;2022-11-03T11:22:12;99445.63;;;15.56;55.07
39267;BME280;24967;51.154;13.812;2022-11-03T11:24:56;99437.13;;;15.38;55.41
39267;BME280;24967;51.154;13.812;2022-11-03T11:30:54;99432.72;;;15.74;54.61
39267;BME280;24967;51.154;13.812;2022-11-03T11:33:22;99434.81;;;15.79;53.73
39267;BME280;24967;51.154;13.812;2022-11-03T11:38:57;99424.72;;;15.66;55.09
39267;BME280;24967;51.154;13.812;2022-11-03T11:44:47;99412.97;;;15.97;54.17
39267;BME280;24967;51.154;13.812;2022-11-03T11:47:22;99412.50;;;16.08;54.46
39267;BME280;24967;51.154;13.812;2022-11-03T11:50:02;99405.88;;;16.25;54.28
39267;BME280;24967;51.154;13.812;2022-11-03T11:52:40;99397.13;;;16.38;53.90
39267;BME280;24967;51.154;13.812;2022-11-03T11:55:16;99380.00;;;16.39;54.29
39267;BME280;24967;51.154;13.812;2022-11-03T11:57:43;99385.63;;;16.23;53.27
39267;BME280;24967;51.154;13.812;2022-11-03T12:00:18;99379.63;;;16.21;54.34
39267;BME280;24967;51.154;13.812;2022-11-03T12:02:46;99371.94;;;16.39;53.71
39267;BME280;24967;51.154;13.812;2022-11-03T12:05:19;99365.34;;;16.63;53.93
39267;BME280;24967;51.154;13.812;2022-11-03T12:07:46;99362.66;;;16.63;54.18
39267;BME280;24967;51.154;13.812;2022-11-03T12:10:16;99366.28;;;16.49;54.25
39267;BME280;24967;51.154;13.812;2022-11-03T12:12:43;99370.34;;;16.45;54.58
39267;BME280;24967;51.154;13.812;2022-11-03T12:18:34;99360.72;;;16.08;56.24
39267;BME280;24967;51.154;13.812;2022-11-03T12:21:02;99362.00;;;15.61;56.00
39267;BME280;24967;51.154;13.812;2022-11-03T12:23:33;99347.97;;;15.58;56.94
39267;BME280;24967;51.154;13.812;2022-11-03T12:26:01;99346.31;;;15.43;57.68
39267;BME280;24967;51.154;13.812;2022-11-03T12:28:30;99343.63;;;15.57;58.09
39267;BME280;24967;51.154;13.812;2022-11-03T12:30:57;99342.25;;;15.47;56.83
39267;BME280;24967;51.154;13.812;2022-11-03T12:33:25;99339.97;;;15.44;57.62
39267;BME280;24967;51.154;13.812;2022-11-03T12:35:52;99334.03;;;15.33;57.67
39267;BME280;24967;51.154;13.812;2022-11-03T12:38:18;99331.19;;;15.35;57.61
39267;BME280;24967;51.154;13.812;2022-11-03T12:40:45;99330.16;;;15.36;58.10
39267;BME280;24967;51.154;13.812;2022-11-03T12:43:13;99315.88;;;15.29;58.03
39267;BME280;24967;51.154;13.812;2022-11-03T12:45:39;99326.88;;;15.19;57.65
39267;BME280;24967;51.154;13.812;2022-11-03T12:48:08;99318.91;;;15.26;57.75
39267;BME280;24967;51.154;13.812;2022-11-03T12:50:35;99315.03;;;15.43;58.75
39267;BME280;24967;51.154;13.812;2022-11-03T12:53:03;99319.16;;;15.46;58.05
39267;BME280;24967;51.154;13.812;2022-11-03T12:55:31;99315.94;;;15.50;57.92
39267;BME280;24967;51.154;13.812;2022-11-03T12:57:59;99308.59;;;15.74;57.08
39267;BME280;24967;51.154;13.812;2022-11-03T13:00:34;99303.44;;;15.57;57.09
39267;BME280;24967;51.154;13.812;2022-11-03T13:03:03;99300.25;;;15.84;57.13
39267;BME280;24967;51.154;13.812;2022-11-03T13:05:32;99297.25;;;15.72;56.64
39267;BME280;24967;51.154;13.812;2022-11-03T13:08:02;99285.97;;;15.76;56.87
39267;BME280;24967;51.154;13.812;2022-11-03T13:10:31;99281.38;;;15.70;56.85
39267;BME280;24967;51.154;13.812;2022-11-03T13:12:58;99278.31;;;15.58;57.62
39267;BME280;24967;51.154;13.812;2022-11-03T13:15:39;99264.59;;;15.47;57.55
39267;BME280;24967;51.154;13.812;2022-11-03T13:18:06;99263.44;;;15.71;57.38
39267;BME280;24967;51.154;13.812;2022-11-03T13:20:33;99255.72;;;15.46;57.17
39267;BME280;24967;51.154;13.812;2022-11-03T13:23:00;99246.41;;;15.27;57.85
39267;BME280;24967;51.154;13.812;2022-11-03T13:25:31;99248.59;;;15.02;58.62